createdAt,value
2017-09-23T00:00:44.226Z,58.60
2017-09-23T00:03:11.764Z,56.80
2017-09-23T00:05:39.274Z,58.22
2017-09-23T00:08:06.775Z,52.10
2017-09-23T00:10:35.113Z,47.10
2017-09-23T00:13:02.609Z,59.87
2017-09-23T00:15:30.113Z,46.93
2017-09-23T00:17:57.577Z,66.80
2017-09-23T00:20:25.034Z,62.97
2017-09-23T00:22:53.444Z,47.40
2017-09-23T00:25:20.908Z,52.47
2017-09-23T00:27:48.368Z,53.30
2017-09-23T00:30:15.858Z,46.57
2017-09-23T00:32:43.325Z,50.90
2017-09-23T00:35:10.789Z,52.67
2017-09-23T00:37:38.289Z,62.90
2017-09-23T00:40:05.777Z,48.23
2017-09-23T00:42:33.242Z,60.77
2017-09-23T00:45:00.737Z,53.93
2017-09-23T00:47:28.205Z,56.53
2017-09-23T00:49:55.735Z,65.93
2017-09-23T00:52:24.142Z,53.73
2017-09-23T00:54:51.605Z,63.77
2017-09-23T00:57:19.109Z,64.67
2017-09-23T00:59:46.659Z,77.33
2017-09-23T01:02:14.886Z,63.37
2017-09-23T01:04:42.381Z,59.10
2017-09-23T01:07:10.612Z,55.03
2017-09-23T01:09:38.077Z,62.80
2017-09-23T01:12:05.573Z,59.60
2017-09-23T01:14:33.801Z,61.10
2017-09-23T01:17:01.262Z,49.50
2017-09-23T01:19:28.813Z,44.30
2017-09-23T01:21:56.282Z,60.60
2017-09-23T01:24:24.705Z,44.13
2017-09-23T01:26:52.957Z,47.97
2017-09-23T01:29:22.086Z,43.17
2017-09-23T01:31:50.345Z,44.73
2017-09-23T01:34:17.842Z,43.80
2017-09-23T01:36:45.390Z,41.60
2017-09-23T01:39:12.852Z,41.53
2017-09-23T01:41:40.345Z,40.83
2017-09-23T01:44:07.855Z,48.43
2017-09-23T01:46:36.428Z,40.87
2017-09-23T01:49:04.087Z,45.87
2017-09-23T01:51:31.613Z,49.70
2017-09-23T01:53:59.328Z,49.83
2017-09-23T01:56:27.558Z,53.80
2017-09-23T01:58:55.538Z,42.30
2017-09-23T02:01:23.033Z,54.70
2017-09-23T02:03:51.261Z,55.03
2017-09-23T02:06:18.721Z,53.20
2017-09-23T02:08:46.237Z,68.57
2017-09-23T02:11:13.705Z,121.77
2017-09-23T02:13:41.166Z,257.40
2017-09-23T02:16:08.710Z,68.43
2017-09-23T02:18:36.932Z,164.17
2017-09-23T02:21:04.409Z,176.27
2017-09-23T02:23:31.902Z,143.00
2017-09-23T02:26:00.157Z,52.60
2017-09-23T02:28:27.675Z,44.80
2017-09-23T02:30:56.067Z,55.13
2017-09-23T02:33:23.544Z,79.63
2017-09-23T02:35:51.030Z,86.60
2017-09-23T02:38:19.334Z,88.80
2017-09-23T02:40:46.805Z,137.30
2017-09-23T02:43:14.304Z,123.67
2017-09-23T02:45:41.816Z,177.63
2017-09-23T02:48:09.335Z,52.80
2017-09-23T02:50:37.618Z,48.23
2017-09-23T02:53:05.874Z,54.30
2017-09-23T02:55:33.340Z,55.23
2017-09-23T02:58:00.833Z,57.13
2017-09-23T03:00:29.087Z,78.47
2017-09-23T03:02:58.441Z,197.30
2017-09-23T03:05:26.938Z,73.87
2017-09-23T03:07:54.445Z,109.53
2017-09-23T03:10:21.913Z,51.80
2017-09-23T03:12:49.375Z,61.17
2017-09-23T03:15:16.917Z,58.53
2017-09-23T03:17:45.146Z,83.90
2017-09-23T03:20:12.646Z,97.50
2017-09-23T03:22:40.897Z,185.50
2017-09-23T03:25:08.375Z,218.07
2017-09-23T03:27:36.706Z,174.90
2017-09-23T03:30:04.194Z,112.30
2017-09-23T03:32:31.675Z,80.43
2017-09-23T03:34:59.158Z,37.73
2017-09-23T03:37:27.578Z,29.13
2017-09-23T03:39:55.046Z,31.43
2017-09-23T03:42:22.548Z,51.17
2017-09-23T03:44:50.041Z,41.60
2017-09-23T03:47:18.269Z,52.73
2017-09-23T03:49:45.837Z,52.37
2017-09-23T03:52:14.085Z,32.70
2017-09-23T03:54:41.553Z,39.00
2017-09-23T03:57:09.794Z,32.47
2017-09-23T03:59:37.291Z,71.77
2017-09-23T04:02:05.530Z,37.60
2017-09-23T04:04:32.994Z,92.87
2017-09-23T04:07:00.494Z,51.97
2017-09-23T04:09:28.262Z,120.78
2017-09-23T04:11:55.773Z,41.00
2017-09-23T04:14:23.235Z,32.17
2017-09-23T04:16:50.740Z,129.43
2017-09-23T04:19:18.208Z,38.53
2017-09-23T04:21:45.670Z,37.73
2017-09-23T04:24:13.224Z,35.47
2017-09-23T04:26:40.693Z,34.97
2017-09-23T04:29:08.183Z,93.50
2017-09-23T04:31:35.638Z,51.13
2017-09-23T04:34:03.137Z,77.23
2017-09-23T04:36:31.369Z,119.77
2017-09-23T04:38:58.974Z,145.40
2017-09-23T04:41:26.470Z,122.70
2017-09-23T04:43:53.994Z,38.57
2017-09-23T04:46:21.437Z,76.60
2017-09-23T04:48:49.754Z,74.13
2017-09-23T04:51:17.233Z,74.03
2017-09-23T04:53:44.698Z,41.27
2017-09-23T04:56:12.194Z,62.70
2017-09-23T04:58:39.653Z,42.33
2017-09-23T05:01:07.113Z,64.23
2017-09-23T05:03:34.623Z,46.40
2017-09-23T05:06:02.086Z,30.20
2017-09-23T05:08:30.366Z,32.90
2017-09-23T05:10:57.853Z,33.47
2017-09-23T05:13:25.315Z,43.77
2017-09-23T05:15:52.798Z,31.83
2017-09-23T05:18:21.046Z,48.83
2017-09-23T05:20:48.502Z,54.93
2017-09-23T05:23:15.997Z,38.75
2017-09-23T05:25:43.470Z,35.60
2017-09-23T05:28:10.951Z,47.23
2017-09-23T05:30:38.494Z,54.10
2017-09-23T05:33:05.954Z,29.53
2017-09-23T05:35:33.413Z,30.73
2017-09-23T05:38:00.910Z,36.30
2017-09-23T05:40:28.394Z,54.33
2017-09-23T05:42:56.622Z,52.23
2017-09-23T05:45:24.099Z,35.07
2017-09-23T05:47:51.797Z,38.33
2017-09-23T05:50:20.025Z,29.23
2017-09-23T05:52:47.706Z,55.07
2017-09-23T05:55:15.464Z,77.67
2017-09-23T05:57:43.041Z,125.17
2017-09-23T06:00:10.503Z,139.40
2017-09-23T06:02:38.923Z,186.53
2017-09-23T06:05:06.757Z,34.30
2017-09-23T06:07:34.240Z,30.37
2017-09-23T06:10:01.845Z,60.47
2017-09-23T06:12:29.388Z,60.43
2017-09-23T06:14:56.994Z,68.45
2017-09-23T06:17:24.762Z,42.70
2017-09-23T06:19:53.037Z,33.97
2017-09-23T06:22:21.328Z,42.23
2017-09-23T06:24:49.695Z,45.57
2017-09-23T06:27:17.204Z,65.20
2017-09-23T06:29:44.750Z,119.57
2017-09-23T06:32:12.292Z,33.10
2017-09-23T06:34:39.870Z,21.00
2017-09-23T06:37:07.509Z,37.63
2017-09-23T06:39:35.798Z,41.43
2017-09-23T06:42:03.277Z,32.63
2017-09-23T06:44:31.682Z,50.47
2017-09-23T06:46:59.246Z,30.13
2017-09-23T06:49:26.729Z,40.30
2017-09-23T06:51:54.209Z,37.97
2017-09-23T06:54:21.702Z,43.00
2017-09-23T06:56:49.157Z,36.13
2017-09-23T06:59:16.669Z,60.13
2017-09-23T07:01:44.885Z,66.30
2017-09-23T07:04:12.341Z,27.97
2017-09-23T07:06:39.822Z,148.77
2017-09-23T07:09:07.337Z,104.30
2017-09-23T07:11:34.819Z,79.30
2017-09-23T07:14:02.346Z,33.53
2017-09-23T07:16:29.845Z,27.10
2017-09-23T07:18:57.334Z,27.60
2017-09-23T07:21:24.810Z,31.10
2017-09-23T07:23:53.073Z,21.93
2017-09-23T07:26:20.561Z,34.80
2017-09-23T07:28:48.025Z,19.67
2017-09-23T07:31:15.491Z,19.37
2017-09-23T07:33:43.002Z,21.93
2017-09-23T07:36:10.464Z,20.47
2017-09-23T07:38:37.941Z,21.20
2017-09-23T07:41:05.441Z,19.47
2017-09-23T07:43:32.901Z,22.93
2017-09-23T07:46:00.386Z,36.13
2017-09-23T07:48:27.849Z,19.90
2017-09-23T07:50:55.500Z,17.83
2017-09-23T07:53:23.901Z,19.20
2017-09-23T07:55:51.560Z,21.30
2017-09-23T07:58:19.623Z,21.03
2017-09-23T08:00:47.247Z,26.13
2017-09-23T08:03:15.116Z,18.75
2017-09-23T08:05:42.577Z,17.67
2017-09-23T08:08:10.748Z,18.30
2017-09-23T08:10:38.590Z,17.87
2017-09-23T08:13:06.405Z,17.50
2017-09-23T08:15:34.228Z,19.30
2017-09-23T08:18:01.982Z,18.03
2017-09-23T08:20:30.898Z,16.70
2017-09-23T08:22:58.827Z,19.00
2017-09-23T08:25:26.953Z,18.23
2017-09-23T08:27:55.198Z,34.60
2017-09-23T08:30:24.096Z,27.40
2017-09-23T08:32:51.734Z,38.20
2017-09-23T08:35:19.793Z,20.40
2017-09-23T08:37:48.088Z,20.70
2017-09-23T08:40:17.124Z,24.37
2017-09-23T08:42:46.215Z,16.73
2017-09-23T08:45:13.915Z,18.93
2017-09-23T08:47:42.112Z,19.13
2017-09-23T08:50:10.065Z,19.70
2017-09-23T08:52:37.820Z,16.70
2017-09-23T08:55:05.559Z,15.37
2017-09-23T08:57:33.130Z,24.87
2017-09-23T09:00:00.626Z,19.03
2017-09-23T09:02:28.113Z,17.00
2017-09-23T09:04:55.577Z,19.80
2017-09-23T09:07:23.092Z,19.03
2017-09-23T09:09:50.644Z,16.20
2017-09-23T09:12:18.252Z,15.77
2017-09-23T09:14:45.721Z,18.23
2017-09-23T09:17:13.392Z,16.40
2017-09-23T09:19:41.041Z,16.70
2017-09-23T09:22:08.496Z,21.70
2017-09-23T09:24:35.979Z,19.47
2017-09-23T09:27:03.582Z,15.40
2017-09-23T09:29:31.078Z,12.37
2017-09-23T09:31:58.605Z,17.10
2017-09-23T09:34:26.082Z,19.00
2017-09-23T09:36:54.416Z,20.53
2017-09-23T09:39:21.934Z,9.23
2017-09-23T09:41:49.412Z,19.00
2017-09-23T09:44:16.869Z,14.17
2017-09-23T09:46:44.354Z,13.33
2017-09-23T09:49:11.917Z,17.70
2017-09-23T09:51:39.377Z,15.77
2017-09-23T09:54:06.840Z,9.73
2017-09-23T09:56:35.218Z,8.10
2017-09-23T09:59:02.800Z,13.53
2017-09-23T10:01:31.114Z,10.77
2017-09-23T10:03:58.610Z,14.23
2017-09-23T10:06:26.063Z,14.80
2017-09-23T10:08:53.524Z,11.02
2017-09-23T10:11:21.029Z,12.20
2017-09-23T10:13:48.483Z,7.90
2017-09-23T10:16:15.934Z,9.10
2017-09-23T10:18:44.218Z,24.93
2017-09-23T10:21:11.710Z,13.47
2017-09-23T10:23:39.172Z,9.83
2017-09-23T10:26:06.650Z,7.70
2017-09-23T10:28:34.204Z,11.07
2017-09-23T10:31:01.769Z,9.13
2017-09-23T10:33:30.010Z,8.90
2017-09-23T10:35:57.522Z,8.00
2017-09-23T10:38:25.103Z,9.53
2017-09-23T10:40:52.589Z,6.77
2017-09-23T10:43:20.045Z,7.47
2017-09-23T10:45:47.613Z,15.43
2017-09-23T10:48:15.088Z,7.17
2017-09-23T10:50:42.572Z,5.70
2017-09-23T10:53:10.555Z,9.40
2017-09-23T10:55:38.719Z,11.27
2017-09-23T10:58:06.826Z,6.00
2017-09-23T11:00:35.888Z,7.20
2017-09-23T11:03:03.494Z,4.17
2017-09-23T11:05:31.536Z,4.37
2017-09-23T11:07:59.411Z,17.33
2017-09-23T11:10:26.958Z,7.60
2017-09-23T11:12:55.437Z,5.50
2017-09-23T11:15:24.117Z,4.87
2017-09-23T11:17:52.045Z,3.83
2017-09-23T11:20:19.990Z,6.17
2017-09-23T11:22:48.310Z,8.13
2017-09-23T11:25:15.805Z,9.90
2017-09-23T11:27:45.137Z,6.20
2017-09-23T11:30:12.765Z,6.62
2017-09-23T11:32:41.017Z,6.07
2017-09-23T11:35:08.970Z,6.13
2017-09-23T11:37:37.648Z,7.40
2017-09-23T11:40:05.137Z,13.00
2017-09-23T11:42:32.594Z,5.77
2017-09-23T11:45:00.055Z,8.67
2017-09-23T11:47:27.529Z,10.27
2017-09-23T11:49:54.985Z,6.07
2017-09-23T11:52:22.573Z,3.93
2017-09-23T11:54:50.091Z,5.30
2017-09-23T11:57:17.549Z,5.73
2017-09-23T11:59:45.181Z,3.50
2017-09-23T12:02:12.630Z,3.33
2017-09-23T12:04:40.114Z,8.00
2017-09-23T12:07:07.586Z,3.20
2017-09-23T12:09:35.040Z,5.50
2017-09-23T12:12:02.513Z,6.30
2017-09-23T12:14:29.966Z,3.00
2017-09-23T12:16:57.418Z,2.80
2017-09-23T12:19:24.901Z,7.00
2017-09-23T12:21:52.364Z,3.90
2017-09-23T12:24:20.613Z,14.77
2017-09-23T12:26:48.084Z,10.07
2017-09-23T12:29:15.560Z,2.20
2017-09-23T12:31:43.788Z,2.27
2017-09-23T12:34:11.261Z,4.20
2017-09-23T12:36:38.714Z,4.93
2017-09-23T12:39:06.169Z,4.47
2017-09-23T12:41:33.650Z,6.53
2017-09-23T12:44:01.142Z,4.37
2017-09-23T12:46:28.594Z,7.43
2017-09-23T12:48:56.126Z,3.80
2017-09-23T12:51:23.597Z,3.50
2017-09-23T12:53:51.841Z,7.47
2017-09-23T12:56:20.086Z,3.10
2017-09-23T12:58:47.546Z,5.40
2017-09-23T13:01:15.023Z,2.23
2017-09-23T13:03:42.477Z,4.53
2017-09-23T13:06:10.701Z,4.10
2017-09-23T13:08:39.038Z,10.97
2017-09-23T13:11:06.511Z,2.97
2017-09-23T13:13:33.997Z,5.63
2017-09-23T13:16:02.284Z,4.73
2017-09-23T13:18:29.846Z,22.83
2017-09-23T13:20:57.372Z,3.30
2017-09-23T13:23:24.836Z,4.33
2017-09-23T13:25:52.441Z,4.30
2017-09-23T13:28:19.900Z,3.30
2017-09-23T13:30:47.359Z,7.00
2017-09-23T13:33:14.842Z,5.10
2017-09-23T13:35:42.345Z,4.03
2017-09-23T13:38:10.683Z,2.63
2017-09-23T13:40:39.550Z,2.33
2017-09-23T13:43:07.022Z,2.30
2017-09-23T13:45:34.514Z,3.60
2017-09-23T13:48:01.996Z,2.80
2017-09-23T13:50:29.453Z,2.47
2017-09-23T13:52:56.941Z,2.43
2017-09-23T13:55:24.403Z,7.40
2017-09-23T13:57:51.882Z,2.00
2017-09-23T14:00:19.352Z,2.20
2017-09-23T14:02:46.836Z,1.90
2017-09-23T14:05:15.053Z,2.77
2017-09-23T14:07:42.530Z,5.77
2017-09-23T14:10:10.046Z,1.63
2017-09-23T14:12:37.525Z,2.20
2017-09-23T14:15:04.981Z,2.30
2017-09-23T14:17:32.469Z,4.27
2017-09-23T14:19:59.929Z,2.03
2017-09-23T14:22:27.398Z,2.13
2017-09-23T14:24:54.886Z,1.67
2017-09-23T14:27:22.350Z,1.73
2017-09-23T14:29:49.843Z,3.80
2017-09-23T14:32:17.312Z,3.93
2017-09-23T14:34:44.775Z,1.87
2017-09-23T14:37:13.025Z,3.47
2017-09-23T14:39:40.563Z,1.83
2017-09-23T14:42:08.021Z,3.13
2017-09-23T14:44:35.503Z,2.20
2017-09-23T14:47:03.017Z,1.60
2017-09-23T14:49:30.473Z,3.43
2017-09-23T14:51:58.698Z,3.50
2017-09-23T14:54:26.182Z,1.77
2017-09-23T14:56:53.650Z,2.60
2017-09-23T14:59:21.118Z,5.83
2017-09-23T15:01:48.701Z,2.40
2017-09-23T15:04:16.941Z,3.40
2017-09-23T15:06:44.465Z,2.83
2017-09-23T15:09:11.929Z,6.23
2017-09-23T15:11:39.382Z,2.30
2017-09-23T15:14:06.955Z,2.00
2017-09-23T15:16:34.401Z,2.23
2017-09-23T15:19:01.870Z,7.77
2017-09-23T15:21:29.385Z,11.00
2017-09-23T15:23:57.650Z,2.00
2017-09-23T15:26:25.974Z,5.87
2017-09-23T15:28:53.457Z,11.53
2017-09-23T15:31:20.918Z,3.47
2017-09-23T15:33:48.385Z,2.80
2017-09-23T15:36:15.841Z,6.73
2017-09-23T15:38:43.313Z,5.87
2017-09-23T15:41:11.171Z,4.40
2017-09-23T15:43:38.665Z,20.43
2017-09-23T15:46:06.123Z,3.20
2017-09-23T15:48:33.583Z,4.33
2017-09-23T15:51:01.065Z,3.50
2017-09-23T15:53:28.575Z,2.87
2017-09-23T15:55:56.049Z,3.20
2017-09-23T15:58:24.339Z,2.17
2017-09-23T16:00:51.789Z,3.77
2017-09-23T16:03:19.267Z,2.80
2017-09-23T16:05:46.714Z,3.30
2017-09-23T16:08:14.206Z,7.70
2017-09-23T16:10:42.578Z,2.67
2017-09-23T16:13:10.049Z,3.90
2017-09-23T16:15:37.522Z,4.63
2017-09-23T16:18:04.996Z,3.00
2017-09-23T16:20:32.445Z,4.90
2017-09-23T16:22:59.933Z,3.17
2017-09-23T16:25:28.191Z,3.63
2017-09-23T16:27:55.649Z,3.53
2017-09-23T16:30:23.109Z,8.83
2017-09-23T16:32:50.581Z,3.00
2017-09-23T16:35:18.810Z,5.97
2017-09-23T16:37:46.299Z,3.97
2017-09-23T16:40:14.527Z,4.83
2017-09-23T16:42:43.323Z,6.03
2017-09-23T16:45:10.835Z,6.87
2017-09-23T16:47:38.301Z,5.80
2017-09-23T16:50:05.766Z,4.93
2017-09-23T16:52:33.277Z,11.30
2017-09-23T16:55:00.758Z,6.43
2017-09-23T16:57:29.002Z,5.60
2017-09-23T16:59:57.313Z,7.20
2017-09-23T17:02:25.573Z,11.57
2017-09-23T17:04:53.029Z,8.63
2017-09-23T17:07:20.530Z,14.87
2017-09-23T17:09:48.015Z,9.33
2017-09-23T17:12:15.493Z,13.73
2017-09-23T17:14:43.909Z,12.37
2017-09-23T17:17:13.070Z,5.80
2017-09-23T17:19:40.575Z,5.07
2017-09-23T17:22:08.798Z,6.17
2017-09-23T17:24:36.263Z,6.13
2017-09-23T17:27:03.740Z,4.73
2017-09-23T17:29:31.231Z,4.57
2017-09-23T17:31:58.751Z,5.03
2017-09-23T17:34:26.213Z,3.90
2017-09-23T17:36:53.714Z,9.30
2017-09-23T17:39:21.190Z,5.50
2017-09-23T17:41:48.669Z,6.57
2017-09-23T17:44:16.158Z,10.10
2017-09-23T17:46:44.550Z,12.63
2017-09-23T17:49:13.726Z,8.13
2017-09-23T17:51:41.197Z,7.70
2017-09-23T17:54:08.668Z,8.60
2017-09-23T17:56:36.165Z,9.23
2017-09-23T17:59:03.680Z,7.03
2017-09-23T18:01:31.939Z,9.90
2017-09-23T18:03:59.396Z,5.97
2017-09-23T18:06:26.845Z,13.33
2017-09-23T18:08:54.346Z,9.37
2017-09-23T18:11:22.562Z,6.33
2017-09-23T18:13:50.805Z,9.37
2017-09-23T18:16:18.294Z,10.87
2017-09-23T18:18:45.761Z,12.70
2017-09-23T18:21:13.265Z,11.10
2017-09-23T18:23:41.489Z,12.83
2017-09-23T18:26:08.984Z,18.40
2017-09-23T18:28:38.365Z,11.82
2017-09-23T18:31:05.894Z,13.60
2017-09-23T18:33:33.511Z,14.20
2017-09-23T18:36:00.980Z,17.07
2017-09-23T18:38:28.554Z,20.47
2017-09-23T18:40:56.074Z,22.20
2017-09-23T18:43:23.530Z,26.40
2017-09-23T18:45:51.010Z,24.83
2017-09-23T18:48:18.494Z,21.00
2017-09-23T18:50:45.981Z,23.70
2017-09-23T18:53:13.479Z,41.60
2017-09-23T18:55:41.194Z,17.80
2017-09-23T18:58:08.658Z,22.63
2017-09-23T19:00:36.203Z,27.87
2017-09-23T19:03:03.734Z,35.93
2017-09-23T19:05:31.206Z,39.03
2017-09-23T19:07:59.450Z,23.30
2017-09-23T19:10:26.937Z,33.50
2017-09-23T19:12:54.405Z,16.03
2017-09-23T19:15:21.861Z,19.77
2017-09-23T19:17:49.358Z,17.70
2017-09-23T19:20:16.860Z,18.70
2017-09-23T19:22:46.037Z,16.17
2017-09-23T19:25:13.546Z,19.30
2017-09-23T19:27:41.026Z,18.83
2017-09-23T19:30:08.531Z,26.50
2017-09-23T19:32:35.995Z,43.23
2017-09-23T19:35:04.222Z,34.90
2017-09-23T19:37:31.702Z,30.73
2017-09-23T19:39:59.174Z,24.87
2017-09-23T19:42:26.710Z,31.73
2017-09-23T19:44:54.162Z,17.80
2017-09-23T19:47:21.676Z,20.87
2017-09-23T19:49:49.141Z,24.37
2017-09-23T19:52:16.617Z,19.37
2017-09-23T19:54:44.116Z,16.07
2017-09-23T19:57:11.634Z,24.13
2017-09-23T19:59:39.917Z,24.25
2017-09-23T20:02:07.406Z,26.00
2017-09-23T20:04:34.877Z,23.67
2017-09-23T20:07:02.373Z,21.00
2017-09-23T20:09:30.662Z,22.63
2017-09-23T20:11:58.161Z,19.60
2017-09-23T20:14:25.675Z,25.10
2017-09-23T20:16:53.175Z,17.87
2017-09-23T20:19:20.713Z,17.93
2017-09-23T20:21:48.222Z,25.43
2017-09-23T20:24:16.400Z,15.23
2017-09-23T20:26:44.635Z,13.50
2017-09-23T20:29:12.110Z,9.77
2017-09-23T20:31:39.586Z,10.33
2017-09-23T20:34:07.833Z,7.63
2017-09-23T20:36:35.286Z,11.10
2017-09-23T20:39:02.754Z,8.00
2017-09-23T20:41:30.226Z,10.10
2017-09-23T20:43:57.709Z,19.03
2017-09-23T20:46:26.047Z,7.57
2017-09-23T20:48:53.492Z,10.83
2017-09-23T20:51:20.969Z,12.20
2017-09-23T20:53:48.463Z,18.83
2017-09-23T20:56:16.869Z,15.77
2017-09-23T20:58:44.357Z,22.30
2017-09-23T21:01:11.827Z,16.40
2017-09-23T21:03:39.302Z,23.50
2017-09-23T21:06:06.796Z,14.80
2017-09-23T21:08:34.327Z,13.00
2017-09-23T21:11:02.553Z,12.27
2017-09-23T21:13:30.107Z,17.40
2017-09-23T21:15:57.667Z,26.03
2017-09-23T21:18:25.166Z,34.87
2017-09-23T21:20:52.643Z,34.00
2017-09-23T21:23:20.861Z,23.50
2017-09-23T21:25:48.354Z,18.23
2017-09-23T21:28:15.853Z,17.60
2017-09-23T21:30:43.301Z,14.47
2017-09-23T21:33:10.798Z,15.10
2017-09-23T21:35:38.278Z,13.77
2017-09-23T21:38:05.779Z,19.67
2017-09-23T21:40:33.329Z,13.20
2017-09-23T21:43:01.574Z,10.60
2017-09-23T21:45:29.069Z,11.03
2017-09-23T21:47:57.310Z,9.30
2017-09-23T21:50:24.757Z,9.03
2017-09-23T21:52:52.237Z,12.40
2017-09-23T21:55:19.700Z,12.03
2017-09-23T21:57:48.874Z,18.67
2017-09-23T22:00:16.366Z,12.20
2017-09-23T22:02:43.813Z,13.90
2017-09-23T22:05:11.298Z,12.30
2017-09-23T22:07:38.754Z,11.73
2017-09-23T22:10:06.352Z,11.13
2017-09-23T22:12:33.841Z,13.53
2017-09-23T22:15:01.334Z,18.07
2017-09-23T22:17:28.809Z,11.17
2017-09-23T22:19:56.285Z,17.10
2017-09-23T22:22:23.785Z,20.63
2017-09-23T22:24:51.266Z,12.13
2017-09-23T22:27:18.844Z,15.73
2017-09-23T22:29:46.346Z,14.30
2017-09-23T22:32:13.817Z,11.70
2017-09-23T22:34:42.057Z,11.00
2017-09-23T22:37:09.540Z,8.83
2017-09-23T22:39:37.036Z,11.33
2017-09-23T22:42:05.302Z,12.57
2017-09-23T22:44:33.532Z,11.93
2017-09-23T22:47:01.750Z,15.77
2017-09-23T22:49:29.264Z,12.37
2017-09-23T22:51:56.725Z,15.17
2017-09-23T22:54:24.195Z,10.90
2017-09-23T22:56:51.675Z,11.40
2017-09-23T22:59:20.358Z,9.55
2017-09-23T23:01:47.821Z,13.33
2017-09-23T23:04:16.057Z,15.50
2017-09-23T23:06:43.530Z,13.80
2017-09-23T23:09:11.093Z,12.87
2017-09-23T23:11:38.542Z,13.93
2017-09-23T23:14:06.003Z,11.73
2017-09-23T23:16:33.520Z,9.67
2017-09-23T23:19:00.994Z,13.73
2017-09-23T23:21:28.486Z,19.03
2017-09-23T23:23:55.982Z,17.20
2017-09-23T23:26:24.262Z,10.90
2017-09-23T23:28:52.490Z,14.73
2017-09-23T23:31:20.284Z,12.13
2017-09-23T23:33:47.813Z,13.67
2017-09-23T23:36:15.278Z,18.10
2017-09-23T23:38:43.594Z,12.33
2017-09-23T23:41:11.122Z,14.40
2017-09-23T23:43:38.652Z,17.77
2017-09-23T23:46:06.110Z,16.10
2017-09-23T23:48:33.574Z,16.20
2017-09-23T23:51:01.051Z,17.67
2017-09-23T23:53:28.509Z,18.70
2017-09-23T23:55:56.009Z,15.43
2017-09-23T23:58:24.253Z,17.03
